Time;durP1;ratioP1;P1;durP2;ratioP2;P2;SDS_P1;SDS_P2;PMS_P1;PMS_P2;Temp;Humidity;BMP_temperature;BMP_pressure;BME280_temperature;BME280_humidity;BME280_pressure;Samples;Min_cycle;Max_cycle;Signal;HPM_P1;HPM_P2
2022/03/15 00:00:13;;;;;;;5.35;2.55;;;;;;;10.16;63.80;100926.09;5032705;28;20048;-87
2022/03/15 00:02:38;;;;;;;4.05;2.70;;;;;;;10.14;64.33;100930.72;5048142;28;20040;-87
2022/03/15 00:05:04;;;;;;;3.70;2.63;;;;;;;10.08;64.63;100925.81;5049809;28;20505;-87
2022/03/15 00:07:30;;;;;;;6.50;2.88;;;;;;;10.02;64.44;100918.25;5032129;28;20032;-87
2022/03/15 00:09:55;;;;;;;5.65;2.78;;;;;;;9.99;64.91;100916.66;5033324;28;20402;-87
2022/03/15 00:12:21;;;;;;;4.90;2.80;;;;;;;9.96;64.96;100916.00;5031886;28;20060;-87
2022/03/15 00:14:46;;;;;;;6.43;3.17;;;;;;;10.01;64.30;100919.22;5032609;28;20039;-87
2022/03/15 00:17:12;;;;;;;5.43;2.92;;;;;;;9.86;64.04;100923.81;5032213;28;20096;-87
2022/03/15 00:19:38;;;;;;;5.38;3.00;;;;;;;9.81;63.88;100917.09;5041141;28;20108;-87
2022/03/15 00:22:05;;;;;;;7.30;3.08;;;;;;;9.75;65.02;100916.56;5032492;28;20130;-87
2022/03/15 00:24:30;;;;;;;4.97;3.00;;;;;;;9.77;64.51;100919.13;5032583;28;20164;-87
2022/03/15 00:26:55;;;;;;;6.88;3.10;;;;;;;9.79;64.67;100918.03;5048656;28;20105;-87
2022/03/15 00:29:23;;;;;;;5.00;3.08;;;;;;;9.80;64.28;100929.59;5032100;28;20189;-87
2022/03/15 00:31:49;;;;;;;6.68;3.00;;;;;;;9.80;64.50;100932.25;5029271;28;20033;-86
2022/03/15 00:34:14;;;;;;;5.13;3.05;;;;;;;9.79;64.47;100926.06;5030427;28;20047;-87
2022/03/15 00:36:39;;;;;;;5.35;2.80;;;;;;;9.79;64.46;100926.06;5031803;28;20063;-87
2022/03/15 00:39:05;;;;;;;5.82;3.10;;;;;;;9.82;64.41;100935.66;5048016;28;20105;-86
2022/03/15 00:41:31;;;;;;;5.70;3.00;;;;;;;9.83;64.54;100932.03;5032112;28;20432;-86
2022/03/15 00:43:56;;;;;;;6.55;3.22;;;;;;;9.77;64.33;100932.47;5031498;28;21006;-87
2022/03/15 00:46:21;;;;;;;6.78;3.33;;;;;;;9.77;65.07;100929.81;5032104;28;20033;-86
2022/03/15 00:48:47;;;;;;;6.05;3.00;;;;;;;9.77;64.53;100935.16;5048574;28;20051;-87
2022/03/15 00:51:12;;;;;;;7.50;3.40;;;;;;;9.77;64.61;100930.66;5031357;28;20054;-87
2022/03/15 00:53:38;;;;;;;7.90;3.15;;;;;;;9.74;64.86;100924.69;5047787;28;20032;-87
2022/03/15 00:56:04;;;;;;;5.70;3.10;;;;;;;9.74;65.08;100927.34;5032132;28;20036;-87
2022/03/15 00:58:30;;;;;;;5.43;2.88;;;;;;;9.70;65.27;100918.69;5024157;28;20098;-87
2022/03/15 01:00:55;;;;;;;5.38;2.97;;;;;;;9.71;65.17;100915.06;5032131;28;20440;-87
2022/03/15 01:03:20;;;;;;;6.25;2.42;;;;;;;9.74;65.12;100922.88;5029508;28;20032;-87
2022/03/15 01:05:47;;;;;;;4.45;2.50;;;;;;;9.75;64.86;100918.38;5032118;28;20171;-87
2022/03/15 01:08:13;;;;;;;5.20;2.67;;;;;;;9.74;65.05;100930.03;5031049;28;20491;-87
2022/03/15 01:10:39;;;;;;;6.70;2.88;;;;;;;9.76;65.51;100912.94;5030802;28;20033;-86
2022/03/15 01:13:04;;;;;;;4.93;2.40;;;;;;;9.72;65.48;100907.91;5030535;28;20032;-85
2022/03/15 01:15:39;;;;;;;4.90;2.60;;;;;;;9.69;65.49;100917.00;5031626;28;20043;-87
2022/03/15 01:18:04;;;;;;;4.20;3.00;;;;;;;9.65;66.33;100909.31;5030895;28;20033;-86
2022/03/15 01:20:30;;;;;;;3.83;2.55;;;;;;;9.65;66.06;100910.16;5031249;28;20493;-86
2022/03/15 01:22:55;;;;;;;5.45;2.83;;;;;;;9.64;65.36;100910.28;5030838;28;20032;-87
2022/03/15 01:25:20;;;;;;;5.75;2.50;;;;;;;9.66;65.86;100905.69;5031283;28;20459;-87
2022/03/15 01:27:46;;;;;;;4.32;2.45;;;;;;;9.67;66.01;100908.25;5030698;28;20035;-87
2022/03/15 01:30:11;;;;;;;3.53;2.38;;;;;;;9.68;65.56;100909.94;5027787;28;20041;-87
2022/03/15 01:32:37;;;;;;;4.13;2.58;;;;;;;9.68;65.81;100909.94;5027975;28;20033;-87
2022/03/15 01:35:04;;;;;;;5.45;2.30;;;;;;;9.67;65.71;100905.56;5030603;28;20444;-87
2022/03/15 01:37:29;;;;;;;6.18;2.50;;;;;;;9.65;65.84;100904.81;5021791;28;20047;-87
2022/03/15 01:39:55;;;;;;;4.95;2.67;;;;;;;9.65;65.99;100899.47;5030411;28;20037;-87
2022/03/15 01:42:20;;;;;;;5.03;2.30;;;;;;;9.68;66.01;100903.75;5047297;28;20041;-87
2022/03/15 01:44:47;;;;;;;5.05;2.40;;;;;;;9.66;65.96;100890.50;5031292;28;20020;-87
2022/03/15 01:47:13;;;;;;;3.55;1.75;;;;;;;9.66;65.96;100886.97;5037434;28;20016;-87
2022/03/15 01:49:38;;;;;;;5.15;2.10;;;;;;;9.66;66.14;100879.81;5031022;28;20029;-87
2022/03/15 01:52:04;;;;;;;4.78;2.33;;;;;;;9.66;65.89;100885.16;5031108;28;21034;-88
2022/03/15 01:54:30;;;;;;;4.45;2.33;;;;;;;9.61;66.48;100881.13;5030634;28;20025;-86
2022/03/15 01:56:55;;;;;;;4.35;2.00;;;;;;;9.65;66.05;100879.94;5029853;28;20036;-87
2022/03/15 01:59:20;;;;;;;4.43;1.70;;;;;;;9.63;66.23;100881.88;5030569;28;20057;-87
2022/03/15 02:01:46;;;;;;;4.80;2.30;;;;;;;9.60;66.48;100874.94;5027713;28;20024;-87
2022/03/15 02:04:12;;;;;;;5.05;2.20;;;;;;;9.62;66.45;100881.00;5029096;28;20034;-87
2022/03/15 02:06:38;;;;;;;4.13;2.00;;;;;;;9.60;66.48;100869.59;5029853;28;20038;-87
2022/03/15 02:09:12;;;;;;;4.80;2.50;;;;;;;9.54;66.82;100872.69;5047110;28;20090;-87
2022/03/15 02:11:37;;;;;;;3.83;2.13;;;;;;;9.55;66.46;100865.53;5030142;28;20139;-87
2022/03/15 02:14:04;;;;;;;3.30;1.90;;;;;;;9.57;66.57;100875.13;5047804;28;20529;-87
2022/03/15 02:16:30;;;;;;;4.63;2.10;;;;;;;9.59;66.27;100872.38;5051324;28;20539;-87
2022/03/15 02:18:57;;;;;;;3.60;1.90;;;;;;;9.58;66.70;100859.97;5033161;28;20041;-86
2022/03/15 02:21:23;;;;;;;4.80;1.65;;;;;;;9.61;66.98;100863.28;5033711;28;20036;-87
2022/03/15 02:23:49;;;;;;;4.47;1.80;;;;;;;9.62;66.78;100859.66;5034907;28;20444;-87
2022/03/15 02:26:16;;;;;;;3.13;1.90;;;;;;;9.63;67.07;100861.34;5034211;28;20028;-87
2022/03/15 02:28:41;;;;;;;3.00;1.65;;;;;;;9.62;67.06;100856.97;5026332;28;20043;-87
2022/03/15 02:31:07;;;;;;;5.97;2.10;;;;;;;9.58;67.03;100850.16;5034679;28;20028;-87
2022/03/15 02:33:32;;;;;;;4.53;1.80;;;;;;;9.60;67.13;100839.34;5034245;28;20024;-86
2022/03/15 02:35:57;;;;;;;2.33;1.50;;;;;;;9.62;67.58;100842.78;5034449;28;20115;-88
2022/03/15 02:38:23;;;;;;;3.28;1.65;;;;;;;9.60;67.81;100836.69;5033785;28;20567;-87
2022/03/15 02:40:48;;;;;;;3.33;1.77;;;;;;;9.62;67.42;100835.63;5051464;28;20028;-87
2022/03/15 02:43:14;;;;;;;2.95;1.73;;;;;;;9.62;67.62;100832.09;5034170;28;20901;-88
2022/03/15 02:45:39;;;;;;;3.35;1.70;;;;;;;9.60;67.71;100821.53;5033920;28;20032;-87
2022/03/15 02:48:05;;;;;;;3.40;1.60;;;;;;;9.52;67.47;100815.88;5050882;28;20036;-87
2022/03/15 02:50:30;;;;;;;3.97;1.80;;;;;;;9.56;67.59;100821.84;5034605;28;20025;-87
2022/03/15 02:52:55;;;;;;;3.38;1.90;;;;;;;9.51;67.68;100816.84;5033711;28;20025;-87
2022/03/15 02:55:21;;;;;;;4.43;1.90;;;;;;;9.48;67.47;100817.06;5034539;28;20191;-86
2022/03/15 02:57:48;;;;;;;2.65;1.50;;;;;;;9.45;68.17;100811.91;5031862;28;20115;-87
2022/03/15 03:00:14;;;;;;;2.25;1.40;;;;;;;9.44;67.69;100813.72;5034323;28;20578;-86
2022/03/15 03:02:39;;;;;;;5.03;1.85;;;;;;;9.45;67.94;100804.75;5050202;28;20046;-86
2022/03/15 03:05:05;;;;;;;2.88;1.23;;;;;;;9.54;67.02;100816.63;5034319;28;20388;-87
2022/03/15 03:07:36;;;;;;;3.00;1.40;;;;;;;9.63;66.98;100809.75;5033201;28;20060;-87
2022/03/15 03:10:04;;;;;;;4.15;1.77;;;;;;;9.76;67.53;100811.41;5033190;28;20032;-87
2022/03/15 03:12:29;;;;;;;3.55;1.60;;;;;;;9.78;67.02;100809.50;5031843;28;20128;-87
2022/03/15 03:14:55;;;;;;;3.53;1.55;;;;;;;9.78;66.75;100800.63;5026215;28;20107;-87
2022/03/15 03:17:23;;;;;;;4.68;1.60;;;;;;;9.72;66.39;100804.59;5049252;28;20964;-87
2022/03/15 03:19:48;;;;;;;5.53;1.60;;;;;;;9.73;66.13;100800.97;5046901;28;20055;-86
2022/03/15 03:22:13;;;;;;;3.53;1.40;;;;;;;9.69;66.38;100795.97;5032638;28;20021;-87
2022/03/15 03:24:39;;;;;;;4.40;1.30;;;;;;;9.65;66.58;100787.31;5032468;28;20062;-87
2022/03/15 03:27:04;;;;;;;6.05;1.50;;;;;;;9.63;66.58;100794.59;5032645;28;20371;-87
2022/03/15 03:29:32;;;;;;;2.60;1.30;;;;;;;9.61;66.63;100788.50;5032462;28;20028;-87
2022/03/15 03:31:57;;;;;;;3.75;1.40;;;;;;;9.57;66.94;100784.34;5049709;28;20047;-87
2022/03/15 03:34:23;;;;;;;4.88;1.38;;;;;;;9.57;66.86;100781.69;5049377;28;20478;-85
2022/03/15 03:36:48;;;;;;;2.97;1.45;;;;;;;9.59;66.99;100779.75;5033129;28;20060;-86
2022/03/15 03:39:14;;;;;;;2.53;1.35;;;;;;;9.57;66.86;100784.34;5032606;28;20033;-86
2022/03/15 03:41:40;;;;;;;4.07;1.65;;;;;;;9.52;66.63;100783.84;5032698;28;20029;-87
2022/03/15 03:44:06;;;;;;;3.17;1.20;;;;;;;9.59;66.94;100773.56;5032645;28;20466;-87
2022/03/15 03:46:31;;;;;;;3.90;1.30;;;;;;;9.56;66.90;100777.31;5032434;28;20032;-87
2022/03/15 03:48:57;;;;;;;5.07;1.50;;;;;;;9.58;66.90;100777.19;5048960;28;20067;-87
2022/03/15 03:51:22;;;;;;;4.78;1.40;;;;;;;9.64;67.16;100774.06;5033029;28;20032;-87
2022/03/15 03:53:48;;;;;;;3.80;1.20;;;;;;;9.59;66.38;100766.41;5031228;28;20032;-87
2022/03/15 03:56:13;;;;;;;3.33;1.33;;;;;;;9.55;66.98;100764.94;5032755;28;20032;-86
2022/03/15 03:58:39;;;;;;;3.60;1.40;;;;;;;9.53;66.74;100766.84;5031922;28;20498;-87
2022/03/15 04:01:04;;;;;;;2.70;1.20;;;;;;;9.53;66.71;100766.84;5032542;28;20042;-87
2022/03/15 04:03:31;;;;;;;3.75;1.48;;;;;;;9.52;67.01;100767.81;5031005;28;20547;-87
2022/03/15 04:05:57;;;;;;;5.15;1.63;;;;;;;9.48;66.86;100770.81;5032932;28;20943;-87
2022/03/15 04:08:23;;;;;;;3.08;1.40;;;;;;;9.48;67.13;100766.34;5048659;28;20036;-86
2022/03/15 04:10:50;;;;;;;4.10;1.60;;;;;;;9.48;66.88;100770.81;5032416;28;20478;-87
2022/03/15 04:13:18;;;;;;;2.55;1.38;;;;;;;9.50;67.21;100761.75;5031880;28;20033;-87
2022/03/15 04:15:44;;;;;;;4.38;1.70;;;;;;;9.52;66.86;100772.31;5032813;28;20024;-87
2022/03/15 04:18:10;;;;;;;4.43;1.48;;;;;;;9.49;66.81;100765.38;5031814;28;20119;-87
2022/03/15 04:20:36;;;;;;;2.95;1.45;;;;;;;9.51;67.01;100760.78;5032098;28;20138;-87
2022/03/15 04:23:01;;;;;;;3.30;1.95;;;;;;;9.47;67.31;100759.28;5048344;28;20235;-86
2022/03/15 04:25:26;;;;;;;4.20;1.65;;;;;;;9.46;67.00;100754.91;5031966;28;20040;-86
2022/03/15 04:27:56;;;;;;;3.75;1.65;;;;;;;9.47;67.16;100761.97;5047537;28;20028;-87
2022/03/15 04:30:22;;;;;;;5.60;1.63;;;;;;;9.47;67.50;100767.31;5031369;28;20040;-87
2022/03/15 04:32:48;;;;;;;5.13;1.63;;;;;;;9.48;66.79;100757.47;5048435;28;20033;-87
2022/03/15 04:35:13;;;;;;;6.95;1.63;;;;;;;9.45;67.42;100761.19;5026872;28;20583;-87
2022/03/15 04:37:39;;;;;;;4.80;1.73;;;;;;;9.41;67.56;100755.22;5023824;28;20551;-86
2022/03/15 04:40:08;;;;;;;5.05;1.67;;;;;;;9.42;68.12;100748.91;5032231;28;20154;-88
2022/03/15 04:42:34;;;;;;;5.22;1.85;;;;;;;9.38;67.39;100744.75;5047683;28;20067;-87
2022/03/15 04:44:59;;;;;;;5.20;1.90;;;;;;;9.37;68.23;100744.88;5034586;28;20127;-87
2022/03/15 04:47:25;;;;;;;5.43;1.83;;;;;;;9.35;68.13;100744.13;5035075;28;20060;-87
2022/03/15 04:49:50;;;;;;;2.83;1.63;;;;;;;9.28;68.73;100740.19;5033149;28;20085;-87
2022/03/15 04:52:16;;;;;;;5.47;1.77;;;;;;;9.34;68.53;100739.75;5048299;28;20036;-87
2022/03/15 04:54:41;;;;;;;4.15;1.55;;;;;;;9.34;68.44;100739.75;5032286;28;20040;-87
2022/03/15 04:57:06;;;;;;;3.17;1.70;;;;;;;9.32;68.02;100734.53;5032596;28;20052;-87
2022/03/15 04:59:32;;;;;;;4.38;1.77;;;;;;;9.33;68.50;100738.06;5023618;28;20143;-86
2022/03/15 05:01:57;;;;;;;5.30;2.70;;;;;;;9.34;68.73;100740.63;5047738;28;20519;-87
2022/03/15 05:04:23;;;;;;;5.22;2.05;;;;;;;9.37;68.46;100736.88;5022119;28;20028;-86
2022/03/15 05:06:48;;;;;;;4.28;2.03;;;;;;;9.38;68.29;100733.22;5044949;28;20020;-86
2022/03/15 05:09:13;;;;;;;5.38;2.05;;;;;;;9.37;68.32;100735.06;5030825;28;20024;-87
2022/03/15 05:11:44;;;;;;;4.68;2.00;;;;;;;9.32;67.90;100728.34;5031428;28;20024;-87
2022/03/15 05:14:09;;;;;;;4.60;2.20;;;;;;;9.35;68.25;100726.31;5031650;28;20050;-87
2022/03/15 05:16:34;;;;;;;4.55;1.67;;;;;;;9.35;67.87;100722.78;5030401;28;20032;-87
2022/03/15 05:18:59;;;;;;;4.75;1.83;;;;;;;9.36;67.72;100717.34;5031529;28;20382;-87
2022/03/15 05:21:25;;;;;;;4.70;2.08;;;;;;;9.34;68.31;100721.06;5031150;28;20478;-87
2022/03/15 05:23:53;;;;;;;3.22;1.65;;;;;;;9.32;67.82;100715.84;5031480;28;20478;-87
2022/03/15 05:26:19;;;;;;;4.32;1.60;;;;;;;9.32;68.25;100715.00;5030365;28;20119;-87
2022/03/15 05:28:45;;;;;;;4.07;2.10;;;;;;;9.32;68.09;100705.16;5031175;28;20035;-87
2022/03/15 05:31:28;;;;;;;4.07;1.80;;;;;;;9.34;68.34;100710.41;5030011;28;20033;-87
2022/03/15 05:33:54;;;;;;;3.28;1.80;;;;;;;9.35;68.12;100701.44;5031419;28;20036;-87
2022/03/15 05:36:19;;;;;;;6.38;2.25;;;;;;;9.32;68.06;100705.16;5032010;28;20077;-88
2022/03/15 05:38:45;;;;;;;5.10;1.80;;;;;;;9.30;68.44;100698.25;5048190;28;20079;-87
2022/03/15 05:41:10;;;;;;;5.60;2.00;;;;;;;9.28;68.24;100698.34;5030919;28;20028;-87
2022/03/15 05:43:37;;;;;;;3.85;1.80;;;;;;;9.31;68.56;100700.78;5030179;28;20397;-87
2022/03/15 05:46:03;;;;;;;4.07;1.83;;;;;;;9.32;68.63;100696.31;5030829;28;20043;-87
2022/03/15 05:48:28;;;;;;;4.07;2.17;;;;;;;9.30;68.24;100699.09;5030656;28;20093;-87
2022/03/15 05:50:53;;;;;;;5.43;1.77;;;;;;;9.32;68.89;100696.31;5030852;28;20040;-87
2022/03/15 05:53:19;;;;;;;3.58;1.77;;;;;;;9.30;68.28;100691.09;5030361;28;20074;-87
2022/03/15 05:55:44;;;;;;;2.95;1.98;;;;;;;9.28;68.67;100681.50;5030517;28;20089;-87
2022/03/15 05:58:10;;;;;;;2.88;2.00;;;;;;;9.27;69.05;100688.66;5030181;28;20028;-87
2022/03/15 06:00:35;;;;;;;4.15;1.90;;;;;;;9.25;69.18;100685.25;5030706;28;20116;-87
2022/03/15 06:03:00;;;;;;;6.60;2.45;;;;;;;9.30;69.06;100690.22;5029484;28;20036;-87
2022/03/15 06:05:26;;;;;;;4.95;2.10;;;;;;;9.29;69.22;100686.72;5029009;28;20044;-87
2022/03/15 06:07:52;;;;;;;2.80;1.95;;;;;;;9.27;69.21;100682.44;5024352;28;20023;-88
2022/03/15 06:10:21;;;;;;;3.80;1.95;;;;;;;9.26;69.53;100691.44;5029824;28;20032;-87
2022/03/15 06:12:47;;;;;;;3.42;2.00;;;;;;;9.28;69.67;100687.69;5030921;28;20032;-87
2022/03/15 06:15:13;;;;;;;5.57;2.40;;;;;;;9.30;69.71;100688.41;5030143;28;20040;-87
2022/03/15 06:17:56;;;;;;;5.88;2.58;;;;;;;9.28;69.28;100690.34;5029646;28;20501;-87
2022/03/15 06:20:22;;;;;;;9.50;3.20;;;;;;;9.32;69.29;100693.66;5030517;28;20169;-87
2022/03/15 06:22:48;;;;;;;8.02;2.55;;;;;;;9.31;69.72;100689.28;5046535;28;20041;-87
2022/03/15 06:25:14;;;;;;;3.97;2.38;;;;;;;9.26;69.44;100691.44;5030287;28;20425;-87
2022/03/15 06:27:39;;;;;;;4.22;2.00;;;;;;;9.24;69.85;100690.69;5030581;28;20489;-88
2022/03/15 06:30:06;;;;;;;5.38;2.30;;;;;;;9.20;69.83;100684.72;5031092;28;20111;-87
2022/03/15 06:32:32;;;;;;;3.58;2.10;;;;;;;9.20;69.83;100689.19;5028639;28;20032;-88
2022/03/15 06:35:02;;;;;;;4.47;2.28;;;;;;;9.20;70.10;100686.53;5047456;28;20032;-87
2022/03/15 06:37:28;;;;;;;6.57;2.28;;;;;;;9.18;70.00;100686.66;5030720;28;20048;-88
2022/03/15 06:39:54;;;;;;;5.45;2.42;;;;;;;9.22;69.97;100687.28;5039034;28;20389;-87
2022/03/15 06:42:21;;;;;;;4.93;1.95;;;;;;;9.28;70.33;100684.16;5030591;28;20514;-87
2022/03/15 06:44:46;;;;;;;8.05;3.13;;;;;;;9.32;70.23;100685.63;5046278;28;20031;-87
2022/03/15 06:47:12;;;;;;;4.47;2.50;;;;;;;9.32;69.34;100681.16;5028745;28;20115;-87
2022/03/15 06:49:37;;;;;;;5.05;2.55;;;;;;;9.34;69.58;100678.38;5042759;28;20024;-87
2022/03/15 06:52:03;;;;;;;5.45;2.35;;;;;;;9.33;69.37;100679.34;5028303;28;20029;-87
2022/03/15 06:54:28;;;;;;;7.63;3.10;;;;;;;9.30;69.44;100676.88;5028006;28;20089;-87
2022/03/15 06:56:54;;;;;;;7.95;2.65;;;;;;;9.31;69.66;100671.44;5020449;28;20098;-87
2022/03/15 06:59:20;;;;;;;5.30;2.50;;;;;;;9.34;69.75;100684.56;5023592;28;20048;-88
2022/03/15 07:01:45;;;;;;;6.75;2.33;;;;;;;9.34;69.62;100683.72;5028183;28;20024;-87
2022/03/15 07:04:11;;;;;;;8.50;2.72;;;;;;;9.33;70.09;100680.19;5031523;28;20032;-87
2022/03/15 07:06:36;;;;;;;5.15;2.30;;;;;;;9.30;70.30;100679.56;5031040;28;20114;-88
2022/03/15 07:09:02;;;;;;;6.53;2.50;;;;;;;9.28;70.50;100676.16;5033238;28;20059;-87
2022/03/15 07:11:27;;;;;;;8.30;2.60;;;;;;;9.32;70.66;100674.97;5030934;28;20082;-87
2022/03/15 07:13:53;;;;;;;5.55;2.67;;;;;;;9.35;70.91;100677.41;5033229;28;20385;-88
2022/03/15 07:16:19;;;;;;;4.72;2.40;;;;;;;9.39;71.35;100678.88;5033678;28;20397;-88
2022/03/15 07:18:44;;;;;;;4.60;2.42;;;;;;;9.38;71.23;100675.38;5032942;28;20540;-88
2022/03/15 07:21:10;;;;;;;5.90;2.55;;;;;;;9.40;70.77;100672.56;5033711;28;20060;-88
2022/03/15 07:23:35;;;;;;;7.60;2.75;;;;;;;9.37;70.34;100675.47;5025271;28;20139;-87
2022/03/15 07:26:00;;;;;;;5.25;2.60;;;;;;;9.38;71.17;100670.03;5032618;28;20094;-88
2022/03/15 07:28:26;;;;;;;7.55;3.05;;;;;;;9.36;71.19;100663.94;5032873;28;20139;-88
2022/03/15 07:30:51;;;;;;;8.05;2.90;;;;;;;9.35;71.27;100662.25;5028336;28;20111;-87
2022/03/15 07:33:16;;;;;;;7.63;2.88;;;;;;;9.36;70.94;100655.09;5048552;28;20112;-88
2022/03/15 07:35:42;;;;;;;7.03;2.78;;;;;;;9.38;71.07;100658.50;5024365;28;21000;-88
2022/03/15 07:38:07;;;;;;;7.22;3.00;;;;;;;9.37;71.22;100644.28;5030594;28;20031;-88
2022/03/15 07:40:33;;;;;;;5.80;2.90;;;;;;;9.37;71.10;100656.78;5032736;28;20035;-88
2022/03/15 07:42:58;;;;;;;7.90;3.17;;;;;;;9.39;71.13;100647.69;5032180;28;20062;-88
2022/03/15 07:45:24;;;;;;;6.00;3.20;;;;;;;9.39;71.24;100642.38;5033543;28;20174;-93
2022/03/15 07:47:49;;;;;;;5.53;3.33;;;;;;;9.43;71.07;100643.00;5028590;28;20036;-88
2022/03/15 07:50:16;;;;;;;7.25;3.35;;;;;;;9.44;70.34;100639.34;5048365;28;20095;-90
2022/03/15 07:52:41;;;;;;;11.90;3.75;;;;;;;9.42;70.32;100641.28;5030109;28;20039;-89
2022/03/15 07:55:07;;;;;;;8.23;3.28;;;;;;;9.42;70.09;100650.16;5028605;28;20032;-87
2022/03/15 07:57:33;;;;;;;8.80;3.40;;;;;;;9.43;69.98;100646.50;5032250;28;20036;-88
2022/03/15 07:59:58;;;;;;;6.53;3.55;;;;;;;9.44;70.26;100650.03;5031916;28;20399;-89
2022/03/15 08:02:24;;;;;;;7.50;3.80;;;;;;;9.47;70.52;100641.81;5029528;28;20907;-86
2022/03/15 08:04:49;;;;;;;8.77;4.05;;;;;;;9.52;70.71;100638.81;5031199;28;20032;-89
2022/03/15 08:07:14;;;;;;;10.38;3.70;;;;;;;9.52;70.76;100647.69;5029472;28;20024;-88
2022/03/15 08:09:40;;;;;;;10.40;3.40;;;;;;;9.52;70.77;100649.50;5031229;28;20529;-89
2022/03/15 08:12:05;;;;;;;10.70;3.70;;;;;;;9.54;71.04;100645.75;5030929;28;20024;-89
2022/03/15 08:14:31;;;;;;;9.82;3.72;;;;;;;9.55;71.08;100639.44;5032070;28;20040;-88
2022/03/15 08:16:56;;;;;;;9.00;3.90;;;;;;;9.58;71.27;100635.69;5030889;28;20514;-88
2022/03/15 08:19:22;;;;;;;9.07;3.55;;;;;;;9.60;71.24;100641.75;5031462;28;20059;-89
2022/03/15 08:21:47;;;;;;;8.88;3.80;;;;;;;9.59;71.22;100648.06;5031987;28;20085;-88
2022/03/15 08:24:14;;;;;;;5.70;3.03;;;;;;;9.62;71.53;100642.50;5031911;28;20044;-89
2022/03/15 08:26:39;;;;;;;8.45;3.05;;;;;;;9.65;71.78;100652.94;5032512;28;20047;-88
2022/03/15 08:29:06;;;;;;;9.30;3.45;;;;;;;9.66;72.36;100644.81;5032342;28;20028;-89
2022/03/15 08:31:31;;;;;;;9.63;3.45;;;;;;;9.66;72.38;100647.50;5049007;28;20032;-88
2022/03/15 08:33:56;;;;;;;7.78;3.83;;;;;;;9.66;72.83;100650.16;5049050;28;20424;-89
2022/03/15 08:36:22;;;;;;;10.20;4.10;;;;;;;9.67;73.22;100643.84;5032433;28;20032;-89
2022/03/15 08:38:47;;;;;;;11.63;4.18;;;;;;;9.67;74.13;100643.84;5048837;28;20028;-88
2022/03/15 08:41:13;;;;;;;7.65;3.88;;;;;;;9.64;74.59;100654.75;5032259;28;20504;-89
2022/03/15 08:43:38;;;;;;;12.88;4.88;;;;;;;9.64;76.38;100651.25;5031782;28;20024;-88
2022/03/15 08:46:03;;;;;;;11.70;4.20;;;;;;;9.67;76.75;100643.84;5048914;28;20028;-88
2022/03/15 08:48:29;;;;;;;12.52;4.35;;;;;;;9.81;76.62;100650.81;5029819;28;20024;-89
2022/03/15 08:50:54;;;;;;;11.52;4.25;;;;;;;9.75;78.12;100648.59;5048127;28;20029;-87
2022/03/15 08:53:20;;;;;;;9.15;3.80;;;;;;;9.74;78.37;100644.25;5031509;28;20059;-88
2022/03/15 08:55:45;;;;;;;8.48;3.70;;;;;;;9.73;79.17;100646.06;5031425;28;20060;-88
2022/03/15 08:58:11;;;;;;;7.00;3.35;;;;;;;9.71;79.89;100648.00;5030705;28;20040;-88
2022/03/15 09:00:36;;;;;;;8.82;3.67;;;;;;;9.75;80.35;100643.28;5029743;28;20028;-86
2022/03/15 09:03:01;;;;;;;8.75;4.00;;;;;;;9.73;80.88;100645.22;5031007;28;20052;-88
2022/03/15 09:05:27;;;;;;;8.90;3.80;;;;;;;9.66;81.60;100643.97;5048252;28;20556;-88
2022/03/15 09:07:53;;;;;;;7.53;3.75;;;;;;;9.66;81.91;100639.47;5023770;28;20043;-87
2022/03/15 09:10:19;;;;;;;10.65;4.15;;;;;;;9.69;82.65;100641.06;5031095;28;20074;-88
2022/03/15 09:12:44;;;;;;;8.68;4.35;;;;;;;9.68;82.50;100640.22;5029409;28;20671;-88
2022/03/15 09:15:10;;;;;;;10.05;5.07;;;;;;;9.70;82.95;100640.09;5031226;28;20056;-88
2022/03/15 09:17:35;;;;;;;8.13;4.28;;;;;;;9.71;83.38;100623.97;5029808;28;20044;-88
2022/03/15 09:20:00;;;;;;;6.07;4.07;;;;;;;9.73;83.99;100629.19;5031065;28;20036;-88
2022/03/15 09:22:26;;;;;;;7.20;4.03;;;;;;;9.73;83.92;100627.34;5030596;28;20032;-88
2022/03/15 09:24:51;;;;;;;6.70;3.28;;;;;;;9.77;84.14;100626.16;5030193;28;20029;-88
2022/03/15 09:27:17;;;;;;;8.50;3.78;;;;;;;9.77;84.04;100626.16;5030518;28;20117;-88
2022/03/15 09:29:42;;;;;;;8.52;3.80;;;;;;;9.73;84.09;100616.69;5031411;28;20101;-89
2022/03/15 09:32:10;;;;;;;6.82;3.55;;;;;;;9.73;84.33;100615.81;5030532;28;20115;-88
2022/03/15 09:34:37;;;;;;;8.73;4.00;;;;;;;9.74;84.75;100620.19;5030844;28;20942;-88
2022/03/15 09:37:03;;;;;;;10.20;3.88;;;;;;;9.74;84.49;100610.38;5030102;28;20102;-88
2022/03/15 09:39:29;;;;;;;7.07;3.90;;;;;;;9.77;84.62;100614.63;5030038;28;20035;-88
2022/03/15 09:41:56;;;;;;;8.77;4.03;;;;;;;9.82;84.67;100609.78;5014906;28;20024;-88
2022/03/15 09:44:25;;;;;;;7.75;4.00;;;;;;;9.81;84.59;100600.06;5021858;28;20237;-89
2022/03/15 09:46:51;;;;;;;5.40;3.67;;;;;;;9.82;84.50;100601.78;5023620;28;20059;-88
2022/03/15 09:49:18;;;;;;;6.38;4.10;;;;;;;9.86;84.74;100613.06;5030204;28;20608;-88
2022/03/15 09:51:45;;;;;;;7.90;4.20;;;;;;;9.84;84.96;100607.00;5029112;28;20401;-89
2022/03/15 09:54:12;;;;;;;6.70;3.92;;;;;;;9.85;85.08;100598.84;5029857;28;20060;-87
2022/03/15 09:56:40;;;;;;;8.77;4.53;;;;;;;9.91;85.31;100606.41;5029208;28;20052;-88
2022/03/15 09:59:14;;;;;;;7.40;4.10;;;;;;;9.93;84.80;100600.94;5029511;28;20072;-89
2022/03/15 10:01:40;;;;;;;6.30;3.53;;;;;;;9.94;84.95;100598.19;5030799;28;20664;-88
2022/03/15 10:04:05;;;;;;;6.38;4.25;;;;;;;9.95;84.91;100588.34;5029938;28;20094;-88
2022/03/15 10:06:31;;;;;;;7.78;3.67;;;;;;;9.95;84.83;100591.88;5028379;28;20036;-87
2022/03/15 10:08:56;;;;;;;6.95;3.70;;;;;;;9.91;85.35;100590.38;5029520;28;20016;-88
2022/03/15 10:11:23;;;;;;;8.05;3.85;;;;;;;9.93;84.82;100588.47;5030103;28;20118;-87
2022/03/15 10:13:49;;;;;;;6.82;3.67;;;;;;;9.96;84.75;100584.72;5029286;28;20112;-88
2022/03/15 10:16:15;;;;;;;7.35;4.10;;;;;;;9.95;84.95;100567.81;5046341;28;20107;-88
2022/03/15 10:18:55;;;;;;;7.88;4.00;;;;;;;9.99;85.43;100569.28;5030090;28;20490;-88
2022/03/15 10:21:24;;;;;;;7.88;4.03;;;;;;;9.99;85.28;100571.97;5022277;28;20043;-87
2022/03/15 10:23:51;;;;;;;7.85;4.32;;;;;;;9.97;85.39;100576.56;5047101;28;20117;-89
2022/03/15 10:26:24;;;;;;;7.70;3.90;;;;;;;9.96;85.84;100563.34;5030794;28;20390;-88
2022/03/15 10:28:53;;;;;;;7.28;4.30;;;;;;;9.94;85.87;100558.09;5029397;28;20035;-89
2022/03/15 10:31:21;;;;;;;6.35;3.92;;;;;;;9.94;86.11;100563.44;5030397;28;20047;-87
2022/03/15 10:33:46;;;;;;;7.38;3.72;;;;;;;9.98;86.31;100556.06;5037732;28;20246;-88
2022/03/15 10:36:17;;;;;;;7.35;4.38;;;;;;;9.99;86.39;100555.94;5033435;28;20560;-87
2022/03/15 10:38:47;;;;;;;6.60;4.18;;;;;;;10.04;86.40;100552.91;5049652;28;20474;-88
2022/03/15 10:44:37;;;;;;;7.43;3.80;;;;;;;10.01;86.22;100542.44;5066149;28;20070;-89
2022/03/15 10:53:47;;;;;;;7.60;4.45;;;;;;;10.05;86.75;100542.09;5067079;28;20178;-88
2022/03/15 10:56:22;;;;;;;6.85;4.35;;;;;;;10.02;87.10;100541.47;5033646;28;20512;-89
2022/03/15 10:58:52;;;;;;;8.68;3.72;;;;;;;10.01;87.25;100537.09;5042907;28;20048;-89
2022/03/15 11:01:24;;;;;;;6.53;3.60;;;;;;;9.99;87.49;100537.22;5034204;28;20115;-89
2022/03/15 11:04:03;;;;;;;5.57;3.50;;;;;;;10.00;87.62;100533.59;5031435;28;20086;-88
2022/03/15 11:06:38;;;;;;;6.25;3.67;;;;;;;9.99;88.14;100531.88;5032818;28;20042;-88
2022/03/15 11:09:26;;;;;;;7.78;3.92;;;;;;;10.03;87.96;100524.47;5030654;28;20101;-88
2022/03/15 11:12:06;;;;;;;7.53;4.13;;;;;;;10.03;88.34;100527.16;5056988;28;20122;-88
2022/03/15 11:14:48;;;;;;;5.07;3.40;;;;;;;10.04;88.29;100526.19;5064156;28;20093;-89
2022/03/15 11:17:41;;;;;;;6.38;3.80;;;;;;;10.02;88.81;100518.28;5030645;28;20028;-89
2022/03/15 11:20:07;;;;;;;6.93;3.95;;;;;;;10.02;89.16;100512.94;5033074;28;20081;-87
2022/03/15 11:22:35;;;;;;;6.25;3.85;;;;;;;9.99;89.15;100507.84;5032526;28;20116;-89
2022/03/15 11:25:11;;;;;;;5.03;3.38;;;;;;;10.03;89.26;100514.63;5033722;28;20051;-88
2022/03/15 11:27:40;;;;;;;6.88;3.63;;;;;;;10.06;89.26;100505.53;5049830;28;20116;-86
2022/03/15 11:30:08;;;;;;;5.70;3.13;;;;;;;10.03;89.34;100498.59;5050438;28;20044;-86
2022/03/15 11:32:34;;;;;;;6.28;3.47;;;;;;;9.95;89.23;100494.84;5049461;28;20039;-89
2022/03/15 11:35:00;;;;;;;5.90;3.28;;;;;;;9.95;89.41;100493.03;5032026;28;20029;-88
2022/03/15 11:37:25;;;;;;;5.03;3.05;;;;;;;9.99;89.51;100490.97;5029632;28;20051;-88